sensor_id;sensor_type;location;lat;lon;timestamp;P1;durP1;ratioP1;P2;durP2;ratioP2
434;SDS011;204;48.942;9.256;2024-03-23T00:54:08;11.02;;;10.45;;
434;SDS011;204;48.942;9.256;2024-03-23T00:56:33;11.43;;;10.83;;
434;SDS011;204;48.942;9.256;2024-03-23T00:58:59;12.10;;;10.77;;
434;SDS011;204;48.942;9.256;2024-03-23T01:01:24;12.13;;;11.53;;
434;SDS011;204;48.942;9.256;2024-03-23T01:03:50;12.00;;;11.40;;
434;SDS011;204;48.942;9.256;2024-03-23T01:06:15;10.67;;;10.07;;
434;SDS011;204;48.942;9.256;2024-03-23T01:08:41;11.40;;;10.60;;
434;SDS011;204;48.942;9.256;2024-03-23T01:11:06;13.23;;;10.90;;
434;SDS011;204;48.942;9.256;2024-03-23T01:13:33;13.65;;;11.77;;
434;SDS011;204;48.942;9.256;2024-03-23T01:15:58;11.63;;;11.03;;
434;SDS011;204;48.942;9.256;2024-03-23T01:18:24;11.67;;;11.07;;
434;SDS011;204;48.942;9.256;2024-03-23T01:20:51;11.35;;;10.75;;
434;SDS011;204;48.942;9.256;2024-03-23T01:23:17;11.90;;;11.30;;
434;SDS011;204;48.942;9.256;2024-03-23T01:25:42;9.83;;;9.33;;
434;SDS011;204;48.942;9.256;2024-03-23T01:28:08;11.37;;;9.40;;
434;SDS011;204;48.942;9.256;2024-03-23T01:30:34;12.03;;;9.77;;
434;SDS011;204;48.942;9.256;2024-03-23T01:33:00;12.07;;;9.25;;
434;SDS011;204;48.942;9.256;2024-03-23T01:35:27;11.50;;;10.05;;
434;SDS011;204;48.942;9.256;2024-03-23T01:37:53;10.40;;;9.57;;
434;SDS011;204;48.942;9.256;2024-03-23T01:40:19;10.17;;;9.70;;
434;SDS011;204;48.942;9.256;2024-03-23T01:42:57;10.20;;;8.77;;
434;SDS011;204;48.942;9.256;2024-03-23T01:45:22;11.40;;;10.55;;
434;SDS011;204;48.942;9.256;2024-03-23T01:47:49;10.73;;;10.13;;
434;SDS011;204;48.942;9.256;2024-03-23T01:50:15;10.80;;;9.32;;
434;SDS011;204;48.942;9.256;2024-03-23T01:52:41;8.73;;;8.23;;
434;SDS011;204;48.942;9.256;2024-03-23T01:55:07;13.70;;;10.83;;
434;SDS011;204;48.942;9.256;2024-03-23T01:57:33;10.95;;;10.35;;
434;SDS011;204;48.942;9.256;2024-03-23T01:59:59;11.20;;;10.10;;
434;SDS011;204;48.942;9.256;2024-03-23T02:02:24;10.43;;;9.90;;
434;SDS011;204;48.942;9.256;2024-03-23T02:04:50;10.43;;;9.80;;
434;SDS011;204;48.942;9.256;2024-03-23T02:07:16;10.63;;;9.60;;
434;SDS011;204;48.942;9.256;2024-03-23T02:09:41;10.47;;;8.73;;
434;SDS011;204;48.942;9.256;2024-03-23T02:12:08;9.85;;;9.15;;
434;SDS011;204;48.942;9.256;2024-03-23T02:14:34;10.03;;;9.53;;
434;SDS011;204;48.942;9.256;2024-03-23T02:16:59;10.80;;;10.20;;
434;SDS011;204;48.942;9.256;2024-03-23T02:19:25;9.83;;;9.33;;
434;SDS011;204;48.942;9.256;2024-03-23T02:21:50;10.80;;;10.10;;
434;SDS011;204;48.942;9.256;2024-03-23T02:24:16;10.10;;;9.60;;
434;SDS011;204;48.942;9.256;2024-03-23T02:26:41;12.57;;;10.77;;
434;SDS011;204;48.942;9.256;2024-03-23T02:29:07;10.57;;;10.00;;
434;SDS011;204;48.942;9.256;2024-03-23T02:31:34;11.90;;;11.05;;
434;SDS011;204;48.942;9.256;2024-03-23T02:34:00;11.57;;;10.98;;
434;SDS011;204;48.942;9.256;2024-03-23T02:36:26;11.10;;;10.50;;
434;SDS011;204;48.942;9.256;2024-03-23T02:38:51;11.30;;;10.70;;
434;SDS011;204;48.942;9.256;2024-03-23T02:41:17;11.53;;;10.93;;
434;SDS011;204;48.942;9.256;2024-03-23T02:43:48;12.32;;;10.98;;
434;SDS011;204;48.942;9.256;2024-03-23T02:46:16;11.55;;;10.95;;
434;SDS011;204;48.942;9.256;2024-03-23T02:48:42;11.40;;;10.60;;
434;SDS011;204;48.942;9.256;2024-03-23T02:51:08;10.60;;;10.03;;
434;SDS011;204;48.942;9.256;2024-03-23T02:53:33;10.43;;;9.90;;
434;SDS011;204;48.942;9.256;2024-03-23T02:55:59;10.37;;;9.87;;
434;SDS011;204;48.942;9.256;2024-03-23T02:58:25;10.80;;;9.40;;
434;SDS011;204;48.942;9.256;2024-03-23T03:00:50;10.63;;;10.03;;
434;SDS011;204;48.942;9.256;2024-03-23T03:03:16;11.10;;;10.40;;
434;SDS011;204;48.942;9.256;2024-03-23T03:05:41;11.80;;;11.20;;
434;SDS011;204;48.942;9.256;2024-03-23T03:08:07;11.80;;;11.20;;
434;SDS011;204;48.942;9.256;2024-03-23T03:10:33;12.63;;;11.97;;
434;SDS011;204;48.942;9.256;2024-03-23T03:13:00;12.88;;;12.18;;
434;SDS011;204;48.942;9.256;2024-03-23T03:15:26;11.40;;;10.80;;
434;SDS011;204;48.942;9.256;2024-03-23T03:17:51;11.30;;;10.70;;
434;SDS011;204;48.942;9.256;2024-03-23T03:20:17;13.47;;;10.90;;
434;SDS011;204;48.942;9.256;2024-03-23T03:22:43;12.40;;;11.57;;
434;SDS011;204;48.942;9.256;2024-03-23T03:25:09;12.10;;;10.77;;
434;SDS011;204;48.942;9.256;2024-03-23T03:27:34;12.27;;;11.47;;
434;SDS011;204;48.942;9.256;2024-03-23T03:30:00;11.23;;;10.63;;
434;SDS011;204;48.942;9.256;2024-03-23T03:32:28;11.77;;;9.98;;
434;SDS011;204;48.942;9.256;2024-03-23T03:34:54;12.32;;;11.02;;
434;SDS011;204;48.942;9.256;2024-03-23T03:37:19;12.03;;;11.33;;
434;SDS011;204;48.942;9.256;2024-03-23T03:39:45;12.13;;;11.43;;
434;SDS011;204;48.942;9.256;2024-03-23T03:42:10;12.57;;;10.93;;
434;SDS011;204;48.942;9.256;2024-03-23T03:44:36;13.03;;;10.70;;
434;SDS011;204;48.942;9.256;2024-03-23T03:47:02;10.30;;;9.80;;
434;SDS011;204;48.942;9.256;2024-03-23T03:49:27;9.97;;;9.47;;
434;SDS011;204;48.942;9.256;2024-03-23T03:51:53;10.10;;;9.60;;
434;SDS011;204;48.942;9.256;2024-03-23T03:54:18;11.60;;;9.37;;
434;SDS011;204;48.942;9.256;2024-03-23T03:56:44;9.03;;;8.53;;
434;SDS011;204;48.942;9.256;2024-03-23T03:59:10;11.63;;;9.20;;
434;SDS011;204;48.942;9.256;2024-03-23T04:01:35;9.47;;;8.97;;
434;SDS011;204;48.942;9.256;2024-03-23T04:04:01;11.20;;;10.37;;
434;SDS011;204;48.942;9.256;2024-03-23T04:06:26;10.03;;;9.53;;
434;SDS011;204;48.942;9.256;2024-03-23T04:08:52;9.63;;;9.13;;
434;SDS011;204;48.942;9.256;2024-03-23T04:11:17;9.53;;;8.93;;
434;SDS011;204;48.942;9.256;2024-03-23T04:13:43;10.23;;;9.77;;
434;SDS011;204;48.942;9.256;2024-03-23T04:16:08;11.63;;;9.50;;
434;SDS011;204;48.942;9.256;2024-03-23T04:18:34;10.13;;;9.20;;
434;SDS011;204;48.942;9.256;2024-03-23T04:21:00;10.27;;;8.20;;
434;SDS011;204;48.942;9.256;2024-03-23T04:23:25;9.50;;;8.20;;
434;SDS011;204;48.942;9.256;2024-03-23T04:25:51;13.03;;;12.37;;
434;SDS011;204;48.942;9.256;2024-03-23T04:28:18;13.85;;;11.80;;
434;SDS011;204;48.942;9.256;2024-03-23T04:30:44;11.83;;;11.23;;
434;SDS011;204;48.942;9.256;2024-03-23T04:33:09;11.53;;;10.93;;
434;SDS011;204;48.942;9.256;2024-03-23T04:35:35;12.77;;;11.93;;
434;SDS011;204;48.942;9.256;2024-03-23T04:38:01;11.43;;;10.43;;
434;SDS011;204;48.942;9.256;2024-03-23T04:40:26;13.80;;;11.50;;
434;SDS011;204;48.942;9.256;2024-03-23T04:42:52;12.30;;;11.13;;
434;SDS011;204;48.942;9.256;2024-03-23T04:45:17;11.23;;;10.63;;
434;SDS011;204;48.942;9.256;2024-03-23T04:47:43;12.33;;;11.73;;
434;SDS011;204;48.942;9.256;2024-03-23T04:50:09;14.20;;;13.37;;
434;SDS011;204;48.942;9.256;2024-03-23T04:52:37;11.82;;;11.20;;
434;SDS011;204;48.942;9.256;2024-03-23T04:55:03;20.33;;;13.43;;
434;SDS011;204;48.942;9.256;2024-03-23T04:57:29;14.50;;;13.77;;
434;SDS011;204;48.942;9.256;2024-03-23T04:59:54;16.00;;;13.03;;
434;SDS011;204;48.942;9.256;2024-03-23T05:02:20;13.80;;;13.10;;
434;SDS011;204;48.942;9.256;2024-03-23T05:04:46;15.70;;;14.77;;
434;SDS011;204;48.942;9.256;2024-03-23T05:07:12;15.70;;;14.00;;
434;SDS011;204;48.942;9.256;2024-03-23T05:09:37;19.90;;;17.10;;
434;SDS011;204;48.942;9.256;2024-03-23T05:12:03;21.33;;;18.40;;
434;SDS011;204;48.942;9.256;2024-03-23T05:14:29;25.57;;;18.10;;
434;SDS011;204;48.942;9.256;2024-03-23T05:16:54;30.83;;;20.20;;
434;SDS011;204;48.942;9.256;2024-03-23T05:19:21;24.40;;;20.23;;
434;SDS011;204;48.942;9.256;2024-03-23T05:21:47;24.60;;;21.45;;
434;SDS011;204;48.942;9.256;2024-03-23T05:24:12;22.70;;;19.20;;
434;SDS011;204;48.942;9.256;2024-03-23T05:26:38;22.77;;;19.73;;
434;SDS011;204;48.942;9.256;2024-03-23T05:29:04;25.83;;;22.30;;
434;SDS011;204;48.942;9.256;2024-03-23T05:31:31;28.85;;;21.38;;
434;SDS011;204;48.942;9.256;2024-03-23T05:33:57;25.67;;;18.83;;
434;SDS011;204;48.942;9.256;2024-03-23T05:36:23;22.37;;;19.23;;
434;SDS011;204;48.942;9.256;2024-03-23T05:38:51;19.35;;;17.08;;
434;SDS011;204;48.942;9.256;2024-03-23T05:41:17;23.60;;;18.63;;
434;SDS011;204;48.942;9.256;2024-03-23T05:43:42;25.53;;;18.40;;
434;SDS011;204;48.942;9.256;2024-03-23T05:46:11;22.90;;;17.00;;
434;SDS011;204;48.942;9.256;2024-03-23T05:48:39;18.05;;;15.90;;
434;SDS011;204;48.942;9.256;2024-03-23T05:51:04;17.80;;;15.73;;
434;SDS011;204;48.942;9.256;2024-03-23T05:53:30;18.40;;;16.13;;
434;SDS011;204;48.942;9.256;2024-03-23T05:56:02;16.43;;;15.10;;
434;SDS011;204;48.942;9.256;2024-03-23T05:58:31;16.33;;;13.30;;
434;SDS011;204;48.942;9.256;2024-03-23T06:00:58;19.08;;;13.63;;
434;SDS011;204;48.942;9.256;2024-03-23T06:03:26;14.65;;;13.02;;
434;SDS011;204;48.942;9.256;2024-03-23T06:05:52;20.25;;;12.95;;
434;SDS011;204;48.942;9.256;2024-03-23T06:08:21;15.20;;;11.50;;
434;SDS011;204;48.942;9.256;2024-03-23T06:10:47;14.55;;;11.95;;
434;SDS011;204;48.942;9.256;2024-03-23T06:13:13;12.90;;;9.70;;
434;SDS011;204;48.942;9.256;2024-03-23T06:15:38;10.90;;;9.27;;
434;SDS011;204;48.942;9.256;2024-03-23T06:18:04;12.40;;;8.90;;
434;SDS011;204;48.942;9.256;2024-03-23T06:20:30;11.63;;;8.48;;
434;SDS011;204;48.942;9.256;2024-03-23T06:22:56;9.63;;;8.13;;
434;SDS011;204;48.942;9.256;2024-03-23T06:25:22;10.05;;;7.43;;
434;SDS011;204;48.942;9.256;2024-03-23T06:27:48;8.10;;;6.60;;
434;SDS011;204;48.942;9.256;2024-03-23T06:30:13;8.80;;;6.00;;
434;SDS011;204;48.942;9.256;2024-03-23T06:32:39;7.57;;;6.50;;
434;SDS011;204;48.942;9.256;2024-03-23T06:35:04;6.37;;;5.83;;
434;SDS011;204;48.942;9.256;2024-03-23T06:37:33;7.13;;;5.07;;
434;SDS011;204;48.942;9.256;2024-03-23T06:39:59;4.97;;;4.68;;
434;SDS011;204;48.942;9.256;2024-03-23T06:42:25;3.63;;;3.50;;
434;SDS011;204;48.942;9.256;2024-03-23T06:44:50;3.80;;;3.13;;
434;SDS011;204;48.942;9.256;2024-03-23T06:47:16;4.30;;;3.17;;
434;SDS011;204;48.942;9.256;2024-03-23T06:49:41;2.63;;;2.20;;
434;SDS011;204;48.942;9.256;2024-03-23T06:52:07;1.90;;;1.80;;
434;SDS011;204;48.942;9.256;2024-03-23T06:54:33;2.40;;;2.20;;
434;SDS011;204;48.942;9.256;2024-03-23T06:56:58;2.60;;;1.80;;
434;SDS011;204;48.942;9.256;2024-03-23T06:59:24;1.57;;;1.47;;
434;SDS011;204;48.942;9.256;2024-03-23T07:01:49;1.70;;;1.50;;
434;SDS011;204;48.942;9.256;2024-03-23T07:04:15;1.20;;;1.10;;
434;SDS011;204;48.942;9.256;2024-03-23T07:06:44;1.73;;;1.63;;
434;SDS011;204;48.942;9.256;2024-03-23T07:09:10;1.30;;;1.20;;
434;SDS011;204;48.942;9.256;2024-03-23T07:11:36;1.37;;;1.27;;
434;SDS011;204;48.942;9.256;2024-03-23T07:14:01;1.77;;;1.10;;
434;SDS011;204;48.942;9.256;2024-03-23T07:16:27;1.10;;;1.10;;
434;SDS011;204;48.942;9.256;2024-03-23T07:18:53;1.07;;;1.00;;
434;SDS011;204;48.942;9.256;2024-03-23T07:21:19;1.90;;;1.70;;
434;SDS011;204;48.942;9.256;2024-03-23T07:23:44;1.30;;;1.27;;
434;SDS011;204;48.942;9.256;2024-03-23T07:26:10;1.53;;;1.00;;
434;SDS011;204;48.942;9.256;2024-03-23T07:28:36;1.47;;;1.37;;
434;SDS011;204;48.942;9.256;2024-03-23T07:31:06;0.90;;;0.80;;
434;SDS011;204;48.942;9.256;2024-03-23T07:33:45;1.17;;;1.17;;
434;SDS011;204;48.942;9.256;2024-03-23T07:36:12;1.08;;;0.90;;
434;SDS011;204;48.942;9.256;2024-03-23T07:38:42;1.42;;;1.10;;
434;SDS011;204;48.942;9.256;2024-03-23T07:41:15;1.42;;;0.98;;
434;SDS011;204;48.942;9.256;2024-03-23T07:43:45;1.30;;;1.15;;
434;SDS011;204;48.942;9.256;2024-03-23T07:46:12;1.40;;;1.35;;
434;SDS011;204;48.942;9.256;2024-03-23T07:48:38;1.10;;;1.10;;
434;SDS011;204;48.942;9.256;2024-03-23T07:53:43;1.33;;;1.23;;
434;SDS011;204;48.942;9.256;2024-03-23T07:56:11;1.05;;;0.95;;
434;SDS011;204;48.942;9.256;2024-03-23T07:58:36;1.30;;;1.20;;
434;SDS011;204;48.942;9.256;2024-03-23T08:01:06;1.67;;;1.58;;
434;SDS011;204;48.942;9.256;2024-03-23T08:03:33;0.98;;;0.98;;
434;SDS011;204;48.942;9.256;2024-03-23T08:06:09;1.02;;;0.90;;
434;SDS011;204;48.942;9.256;2024-03-23T08:08:39;1.25;;;1.23;;
434;SDS011;204;48.942;9.256;2024-03-23T08:11:09;1.33;;;1.23;;
434;SDS011;204;48.942;9.256;2024-03-23T08:13:35;1.00;;;0.90;;
434;SDS011;204;48.942;9.256;2024-03-23T08:16:01;0.85;;;0.75;;
434;SDS011;204;48.942;9.256;2024-03-23T08:18:28;0.60;;;0.55;;
434;SDS011;204;48.942;9.256;2024-03-23T08:20:57;0.70;;;0.50;;
434;SDS011;204;48.942;9.256;2024-03-23T08:23:24;0.57;;;0.55;;
434;SDS011;204;48.942;9.256;2024-03-23T08:25:51;0.52;;;0.50;;
434;SDS011;204;48.942;9.256;2024-03-23T08:28:17;0.65;;;0.60;;
434;SDS011;204;48.942;9.256;2024-03-23T08:30:42;0.70;;;0.60;;
434;SDS011;204;48.942;9.256;2024-03-23T08:33:08;0.60;;;0.50;;
434;SDS011;204;48.942;9.256;2024-03-23T08:35:33;0.60;;;0.57;;
434;SDS011;204;48.942;9.256;2024-03-23T08:37:59;0.70;;;0.60;;
434;SDS011;204;48.942;9.256;2024-03-23T08:40:25;0.90;;;0.70;;
434;SDS011;204;48.942;9.256;2024-03-23T08:42:51;1.33;;;0.60;;
434;SDS011;204;48.942;9.256;2024-03-23T08:45:16;0.67;;;0.60;;
434;SDS011;204;48.942;9.256;2024-03-23T08:47:42;0.90;;;0.87;;
434;SDS011;204;48.942;9.256;2024-03-23T08:50:07;1.10;;;0.93;;
434;SDS011;204;48.942;9.256;2024-03-23T08:52:33;1.23;;;0.90;;
434;SDS011;204;48.942;9.256;2024-03-23T08:54:59;2.33;;;1.30;;
434;SDS011;204;48.942;9.256;2024-03-23T08:57:25;1.20;;;1.00;;
434;SDS011;204;48.942;9.256;2024-03-23T08:59:50;2.53;;;1.10;;
434;SDS011;204;48.942;9.256;2024-03-23T09:02:16;1.37;;;0.90;;
434;SDS011;204;48.942;9.256;2024-03-23T09:04:42;1.67;;;1.10;;
434;SDS011;204;48.942;9.256;2024-03-23T09:07:08;1.15;;;1.00;;
434;SDS011;204;48.942;9.256;2024-03-23T09:09:34;1.40;;;1.20;;
434;SDS011;204;48.942;9.256;2024-03-23T09:12:00;2.87;;;1.40;;
434;SDS011;204;48.942;9.256;2024-03-23T09:14:25;1.20;;;1.10;;
434;SDS011;204;48.942;9.256;2024-03-23T09:16:51;3.07;;;1.57;;
434;SDS011;204;48.942;9.256;2024-03-23T09:19:17;2.40;;;1.30;;
434;SDS011;204;48.942;9.256;2024-03-23T09:21:43;1.67;;;1.27;;
434;SDS011;204;48.942;9.256;2024-03-23T09:24:08;4.23;;;1.90;;
434;SDS011;204;48.942;9.256;2024-03-23T09:26:34;3.10;;;2.10;;
434;SDS011;204;48.942;9.256;2024-03-23T09:29:00;1.83;;;1.30;;
434;SDS011;204;48.942;9.256;2024-03-23T09:31:25;6.67;;;4.10;;
434;SDS011;204;48.942;9.256;2024-03-23T09:33:51;5.43;;;5.17;;
434;SDS011;204;48.942;9.256;2024-03-23T09:36:16;5.83;;;2.10;;
434;SDS011;204;48.942;9.256;2024-03-23T09:38:42;3.30;;;1.90;;
434;SDS011;204;48.942;9.256;2024-03-23T09:41:07;10.47;;;8.30;;
434;SDS011;204;48.942;9.256;2024-03-23T09:43:34;5.20;;;4.72;;
434;SDS011;204;48.942;9.256;2024-03-23T09:46:01;5.55;;;2.60;;
434;SDS011;204;48.942;9.256;2024-03-23T09:48:27;3.72;;;2.42;;
434;SDS011;204;48.942;9.256;2024-03-23T09:50:53;1.90;;;1.80;;
434;SDS011;204;48.942;9.256;2024-03-23T09:53:19;2.60;;;1.83;;
434;SDS011;204;48.942;9.256;2024-03-23T09:55:44;3.43;;;2.60;;
434;SDS011;204;48.942;9.256;2024-03-23T09:58:13;6.40;;;2.33;;
434;SDS011;204;48.942;9.256;2024-03-23T10:00:41;5.75;;;2.70;;
434;SDS011;204;48.942;9.256;2024-03-23T10:03:07;10.80;;;3.00;;
434;SDS011;204;48.942;9.256;2024-03-23T10:05:35;4.97;;;2.85;;
434;SDS011;204;48.942;9.256;2024-03-23T10:08:04;5.00;;;2.70;;
434;SDS011;204;48.942;9.256;2024-03-23T10:10:43;7.63;;;3.10;;
434;SDS011;204;48.942;9.256;2024-03-23T10:13:10;3.90;;;3.03;;
434;SDS011;204;48.942;9.256;2024-03-23T10:15:37;3.70;;;2.70;;
434;SDS011;204;48.942;9.256;2024-03-23T10:18:19;4.00;;;2.53;;
434;SDS011;204;48.942;9.256;2024-03-23T10:20:52;5.03;;;2.83;;
434;SDS011;204;48.942;9.256;2024-03-23T10:23:34;5.47;;;2.92;;
434;SDS011;204;48.942;9.256;2024-03-23T10:28:50;3.92;;;2.40;;
434;SDS011;204;48.942;9.256;2024-03-23T10:31:30;5.30;;;2.78;;
434;SDS011;204;48.942;9.256;2024-03-23T10:33:56;6.28;;;3.15;;
434;SDS011;204;48.942;9.256;2024-03-23T10:36:22;6.72;;;3.03;;
434;SDS011;204;48.942;9.256;2024-03-23T10:38:52;5.43;;;3.05;;
434;SDS011;204;48.942;9.256;2024-03-23T10:41:19;10.98;;;3.85;;
434;SDS011;204;48.942;9.256;2024-03-23T10:43:45;9.13;;;2.90;;
434;SDS011;204;48.942;9.256;2024-03-23T10:46:12;6.72;;;3.10;;
434;SDS011;204;48.942;9.256;2024-03-23T10:48:37;7.50;;;2.80;;
434;SDS011;204;48.942;9.256;2024-03-23T10:51:04;6.30;;;3.13;;
434;SDS011;204;48.942;9.256;2024-03-23T10:53:33;7.60;;;3.13;;
434;SDS011;204;48.942;9.256;2024-03-23T10:55:59;4.25;;;2.60;;
434;SDS011;204;48.942;9.256;2024-03-23T11:01:07;5.47;;;3.22;;
434;SDS011;204;48.942;9.256;2024-03-23T11:03:37;8.77;;;5.18;;
434;SDS011;204;48.942;9.256;2024-03-23T11:06:04;6.32;;;4.05;;
434;SDS011;204;48.942;9.256;2024-03-23T11:08:31;3.83;;;3.60;;
434;SDS011;204;48.942;9.256;2024-03-23T11:13:47;6.88;;;5.00;;
434;SDS011;204;48.942;9.256;2024-03-23T11:16:26;6.25;;;4.40;;
434;SDS011;204;48.942;9.256;2024-03-23T11:18:55;7.55;;;4.07;;
434;SDS011;204;48.942;9.256;2024-03-23T11:21:58;5.22;;;3.13;;
434;SDS011;204;48.942;9.256;2024-03-23T11:24:24;6.23;;;4.10;;
434;SDS011;204;48.942;9.256;2024-03-23T11:26:49;5.27;;;3.70;;
434;SDS011;204;48.942;9.256;2024-03-23T11:29:16;5.90;;;4.03;;
434;SDS011;204;48.942;9.256;2024-03-23T11:31:49;6.45;;;3.97;;
434;SDS011;204;48.942;9.256;2024-03-23T11:34:18;3.78;;;3.20;;
434;SDS011;204;48.942;9.256;2024-03-23T11:36:44;5.38;;;3.97;;
434;SDS011;204;48.942;9.256;2024-03-23T11:39:14;7.18;;;3.55;;
434;SDS011;204;48.942;9.256;2024-03-23T11:41:51;3.95;;;3.45;;
434;SDS011;204;48.942;9.256;2024-03-23T11:46:44;5.20;;;2.80;;
434;SDS011;204;48.942;9.256;2024-03-23T11:51:48;5.78;;;5.53;;
434;SDS011;204;48.942;9.256;2024-03-23T11:54:14;4.67;;;4.20;;
434;SDS011;204;48.942;9.256;2024-03-23T11:56:40;5.90;;;3.90;;
434;SDS011;204;48.942;9.256;2024-03-23T11:59:08;3.93;;;2.77;;
434;SDS011;204;48.942;9.256;2024-03-23T12:01:33;6.05;;;3.28;;
434;SDS011;204;48.942;9.256;2024-03-23T12:03:59;17.63;;;13.43;;
434;SDS011;204;48.942;9.256;2024-03-23T12:06:25;8.07;;;6.57;;
434;SDS011;204;48.942;9.256;2024-03-23T12:08:50;6.10;;;3.97;;
434;SDS011;204;48.942;9.256;2024-03-23T12:11:16;5.10;;;3.40;;
434;SDS011;204;48.942;9.256;2024-03-23T12:13:45;5.18;;;3.83;;
434;SDS011;204;48.942;9.256;2024-03-23T12:16:18;3.55;;;3.15;;
434;SDS011;204;48.942;9.256;2024-03-23T12:18:48;7.32;;;3.35;;
434;SDS011;204;48.942;9.256;2024-03-23T12:21:15;4.10;;;2.85;;
434;SDS011;204;48.942;9.256;2024-03-23T12:23:41;4.20;;;3.25;;
434;SDS011;204;48.942;9.256;2024-03-23T12:26:09;3.58;;;2.00;;
434;SDS011;204;48.942;9.256;2024-03-23T12:28:35;4.10;;;2.47;;
434;SDS011;204;48.942;9.256;2024-03-23T12:31:02;5.63;;;2.35;;
434;SDS011;204;48.942;9.256;2024-03-23T12:33:28;4.70;;;2.23;;
434;SDS011;204;48.942;9.256;2024-03-23T12:35:53;4.60;;;2.00;;
434;SDS011;204;48.942;9.256;2024-03-23T12:38:19;4.03;;;1.60;;
434;SDS011;204;48.942;9.256;2024-03-23T12:40:48;4.07;;;2.20;;
434;SDS011;204;48.942;9.256;2024-03-23T12:43:14;5.05;;;2.55;;
434;SDS011;204;48.942;9.256;2024-03-23T12:45:40;4.68;;;1.83;;
434;SDS011;204;48.942;9.256;2024-03-23T12:48:06;5.70;;;2.17;;
434;SDS011;204;48.942;9.256;2024-03-23T12:50:32;4.30;;;2.30;;
434;SDS011;204;48.942;9.256;2024-03-23T12:52:57;6.93;;;2.50;;
434;SDS011;204;48.942;9.256;2024-03-23T12:55:23;4.37;;;2.10;;
434;SDS011;204;48.942;9.256;2024-03-23T12:57:49;4.30;;;1.90;;
434;SDS011;204;48.942;9.256;2024-03-23T13:00:14;3.87;;;2.17;;
434;SDS011;204;48.942;9.256;2024-03-23T13:02:41;4.50;;;2.50;;
434;SDS011;204;48.942;9.256;2024-03-23T13:05:07;9.80;;;2.90;;
434;SDS011;204;48.942;9.256;2024-03-23T13:07:34;6.43;;;2.28;;
434;SDS011;204;48.942;9.256;2024-03-23T13:10:00;4.95;;;2.60;;
434;SDS011;204;48.942;9.256;2024-03-23T13:12:26;7.77;;;2.83;;
434;SDS011;204;48.942;9.256;2024-03-23T13:14:51;5.60;;;2.37;;
434;SDS011;204;48.942;9.256;2024-03-23T13:17:17;3.63;;;2.37;;
434;SDS011;204;48.942;9.256;2024-03-23T13:19:43;3.37;;;1.90;;
434;SDS011;204;48.942;9.256;2024-03-23T13:22:08;4.53;;;2.17;;
434;SDS011;204;48.942;9.256;2024-03-23T13:24:36;4.35;;;1.90;;
434;SDS011;204;48.942;9.256;2024-03-23T13:27:02;4.68;;;2.53;;
434;SDS011;204;48.942;9.256;2024-03-23T13:29:30;2.90;;;1.98;;
434;SDS011;204;48.942;9.256;2024-03-23T13:31:55;5.73;;;2.50;;
434;SDS011;204;48.942;9.256;2024-03-23T13:34:21;5.43;;;2.10;;
434;SDS011;204;48.942;9.256;2024-03-23T13:36:47;5.60;;;2.00;;
434;SDS011;204;48.942;9.256;2024-03-23T13:39:14;8.53;;;2.57;;
434;SDS011;204;48.942;9.256;2024-03-23T13:41:41;4.22;;;2.00;;
434;SDS011;204;48.942;9.256;2024-03-23T13:44:08;4.82;;;1.92;;
434;SDS011;204;48.942;9.256;2024-03-23T13:46:37;4.43;;;1.55;;
434;SDS011;204;48.942;9.256;2024-03-23T13:49:08;3.78;;;1.60;;
434;SDS011;204;48.942;9.256;2024-03-23T13:51:49;2.90;;;1.85;;
434;SDS011;204;48.942;9.256;2024-03-23T13:54:14;4.53;;;1.27;;
434;SDS011;204;48.942;9.256;2024-03-23T13:56:40;4.50;;;1.60;;
434;SDS011;204;48.942;9.256;2024-03-23T13:59:05;3.10;;;1.97;;
434;SDS011;204;48.942;9.256;2024-03-23T14:01:31;7.23;;;2.20;;
434;SDS011;204;48.942;9.256;2024-03-23T14:03:57;5.57;;;1.60;;
434;SDS011;204;48.942;9.256;2024-03-23T14:06:22;3.90;;;1.90;;
434;SDS011;204;48.942;9.256;2024-03-23T14:08:49;5.20;;;1.43;;
434;SDS011;204;48.942;9.256;2024-03-23T14:11:15;3.38;;;1.65;;
434;SDS011;204;48.942;9.256;2024-03-23T14:13:44;3.22;;;1.85;;
434;SDS011;204;48.942;9.256;2024-03-23T14:16:09;1.53;;;1.20;;
434;SDS011;204;48.942;9.256;2024-03-23T14:18:35;2.47;;;1.10;;
434;SDS011;204;48.942;9.256;2024-03-23T14:21:01;1.73;;;1.13;;
434;SDS011;204;48.942;9.256;2024-03-23T14:23:28;3.20;;;1.92;;
434;SDS011;204;48.942;9.256;2024-03-23T14:25:55;5.05;;;3.00;;
434;SDS011;204;48.942;9.256;2024-03-23T14:28:21;3.70;;;1.70;;
434;SDS011;204;48.942;9.256;2024-03-23T14:30:48;4.60;;;2.63;;
434;SDS011;204;48.942;9.256;2024-03-23T14:33:15;7.97;;;1.90;;
434;SDS011;204;48.942;9.256;2024-03-23T14:35:43;5.22;;;1.95;;
434;SDS011;204;48.942;9.256;2024-03-23T14:38:18;1.92;;;1.30;;
434;SDS011;204;48.942;9.256;2024-03-23T14:40:45;4.85;;;2.35;;
434;SDS011;204;48.942;9.256;2024-03-23T14:43:11;3.13;;;1.85;;
434;SDS011;204;48.942;9.256;2024-03-23T14:45:37;6.23;;;2.07;;
434;SDS011;204;48.942;9.256;2024-03-23T14:48:02;5.03;;;2.20;;
434;SDS011;204;48.942;9.256;2024-03-23T14:50:28;2.03;;;1.20;;
434;SDS011;204;48.942;9.256;2024-03-23T14:52:54;5.83;;;3.13;;
434;SDS011;204;48.942;9.256;2024-03-23T14:55:22;6.40;;;2.55;;
434;SDS011;204;48.942;9.256;2024-03-23T14:57:48;3.93;;;1.97;;
434;SDS011;204;48.942;9.256;2024-03-23T15:00:15;2.85;;;1.48;;
434;SDS011;204;48.942;9.256;2024-03-23T15:02:43;5.63;;;1.42;;
434;SDS011;204;48.942;9.256;2024-03-23T15:05:10;1.73;;;1.10;;
434;SDS011;204;48.942;9.256;2024-03-23T15:07:36;2.20;;;1.03;;
434;SDS011;204;48.942;9.256;2024-03-23T15:10:05;6.90;;;1.27;;
434;SDS011;204;48.942;9.256;2024-03-23T15:12:31;2.47;;;0.90;;
434;SDS011;204;48.942;9.256;2024-03-23T15:14:59;3.95;;;0.90;;
434;SDS011;204;48.942;9.256;2024-03-23T15:17:25;1.67;;;1.30;;
434;SDS011;204;48.942;9.256;2024-03-23T15:19:51;4.50;;;0.90;;
434;SDS011;204;48.942;9.256;2024-03-23T15:22:18;1.52;;;0.75;;
434;SDS011;204;48.942;9.256;2024-03-23T15:24:45;1.95;;;1.35;;
434;SDS011;204;48.942;9.256;2024-03-23T15:27:11;1.50;;;1.00;;
434;SDS011;204;48.942;9.256;2024-03-23T15:29:36;1.70;;;1.00;;
434;SDS011;204;48.942;9.256;2024-03-23T15:32:02;3.13;;;0.93;;
434;SDS011;204;48.942;9.256;2024-03-23T15:34:28;3.05;;;0.70;;
434;SDS011;204;48.942;9.256;2024-03-23T15:36:54;1.20;;;0.73;;
434;SDS011;204;48.942;9.256;2024-03-23T15:39:20;2.43;;;0.50;;
434;SDS011;204;48.942;9.256;2024-03-23T15:41:47;1.85;;;1.00;;
434;SDS011;204;48.942;9.256;2024-03-23T15:44:13;1.23;;;0.87;;
434;SDS011;204;48.942;9.256;2024-03-23T15:46:38;0.80;;;0.63;;
434;SDS011;204;48.942;9.256;2024-03-23T15:49:04;1.80;;;0.77;;
434;SDS011;204;48.942;9.256;2024-03-23T15:51:30;1.57;;;0.80;;
434;SDS011;204;48.942;9.256;2024-03-23T15:53:59;1.20;;;0.75;;
434;SDS011;204;48.942;9.256;2024-03-23T15:56:25;2.00;;;1.27;;
434;SDS011;204;48.942;9.256;2024-03-23T15:58:50;1.77;;;0.90;;
434;SDS011;204;48.942;9.256;2024-03-23T16:01:16;0.83;;;0.70;;
434;SDS011;204;48.942;9.256;2024-03-23T16:03:41;1.90;;;0.70;;
434;SDS011;204;48.942;9.256;2024-03-23T16:06:07;4.10;;;0.83;;
434;SDS011;204;48.942;9.256;2024-03-23T16:08:33;1.30;;;0.70;;
434;SDS011;204;48.942;9.256;2024-03-23T16:10:59;2.85;;;1.00;;
434;SDS011;204;48.942;9.256;2024-03-23T16:13:34;4.50;;;1.02;;
434;SDS011;204;48.942;9.256;2024-03-23T16:16:03;4.32;;;1.08;;
434;SDS011;204;48.942;9.256;2024-03-23T16:18:32;2.35;;;0.93;;
434;SDS011;204;48.942;9.256;2024-03-23T16:21:03;2.38;;;1.10;;
434;SDS011;204;48.942;9.256;2024-03-23T16:23:31;8.85;;;6.80;;
434;SDS011;204;48.942;9.256;2024-03-23T16:25:58;12.05;;;11.00;;
434;SDS011;204;48.942;9.256;2024-03-23T16:31:03;1.60;;;1.33;;
434;SDS011;204;48.942;9.256;2024-03-23T16:33:32;1.60;;;1.50;;
434;SDS011;204;48.942;9.256;2024-03-23T16:36:00;3.13;;;1.30;;
434;SDS011;204;48.942;9.256;2024-03-23T16:38:27;1.65;;;1.38;;
434;SDS011;204;48.942;9.256;2024-03-23T16:40:56;4.20;;;2.75;;
434;SDS011;204;48.942;9.256;2024-03-23T16:43:23;4.40;;;3.55;;
434;SDS011;204;48.942;9.256;2024-03-23T16:46:00;7.10;;;3.38;;